Pelham, AL (35124)

5:17 PM CDT on July 02, 2015 (GMT -0500)
Holland Lakes | | Change Station
CLOSE
Current Station
Personal Weather Station
Location: Pelham, AL
Elevation: 452 ft
Nearby Weather Stations

Elev 452 ft 33.27 °N, 86.81 °W | Updated 9 seconds ago

Partly Cloudy
Partly Cloudy
83.5 °F
Feels Like 89 °F
N
4.0
Wind Variable Wind from SSW
Gusts 8.0 mph

Today
High -- | Low -- °F
--% Chance of Precip.
Yesterday
High -- | Low -- °F
Precip. -- in
5:41 AM 8:00 PM
Full, 99% visible
Pressure 29.96 in
Visibility 9.0 miles
Clouds Clear
Heat Index 89 °F
Dew Point 72 °F
Humidity 69%
Rainfall 0.00 in
Snow Depth Not available.
UV 4 out of 12
Pollen 2.00 out of 12
Air Quality Not available.
Flu Activity Not available.
METAR KEET 022153Z AUTO VRB06KT 9SM CLR 29/21 A2998 RMK AO2 SLP146 T02890211

More Conditions Fewer Conditions

Pressure 29.96 in
Visibility 9.0 miles
Clouds Clear
Heat Index 89 °F
Dew Point 72 °F
Humidity 69%
Rainfall 0.00 in
Snow Depth Not available.
UV 4 out of 12
Pollen 2.00 out of 12
Air Quality Not available.
Flu Activity Not available.
METAR KEET 022153Z AUTO VRB06KT 9SM CLR 29/21 A2998 RMK AO2 SLP146 T02890211

More Conditions Fewer Conditions

10-Day Weather Forecast

×

Almanac

Astronomy

Jul. 02, 2015 Rise Set
Actual Time
Civil Twilight
Nautical Twilight
Astronomical Twilight
Moon
Length of Visible Light
Length of Day
Tomorrow will be .
, % of the Moon is Illuminated

Today's Extremes

State Highs State Lows

Community

WunderPhotos

Upload Photos

1,834,560 photos uploaded!

WunderBlogs® & News

Nearby

Air Quality

  Air Quality AQ Index Pollutant
Not available.

Snow Depth

Station Depth Elevation

Earthquake Activity

City Distance Mag. Time & Date
Minimum magnitude displayed is 2.5.

Coastal Water Temperatures

Place Temperature

Stations

Nearby Weather Stations

Station Location Temp. Windchill Dew Point Humidity Wind Precip. Elev Updated Type